Time;durP1;ratioP1;P1;durP2;ratioP2;P2;SDS_P1;SDS_P2;PMS_P1;PMS_P2;Temp;Humidity;BMP_temperature;BMP_pressure;BME280_temperature;BME280_humidity;BME280_pressure;Samples;Min_cycle;Max_cycle;Signal;HPM_P1;HPM_P2
2022/07/09 00:02:25;;;;;;;;;3.00;3.00;;;;;24.63;41.17;102530.00;5097421;27;45325;-83
2022/07/09 00:04:50;;;;;;;;;4.00;2.00;;;;;24.77;40.64;102558.94;5097336;27;45338;-83
2022/07/09 00:07:15;;;;;;;;;4.00;4.00;;;;;24.74;41.23;102554.59;5097444;27;45166;-82
2022/07/09 00:09:41;;;;;;;;;4.00;4.00;;;;;24.72;41.30;102555.69;5098322;27;54960;-83
2022/07/09 00:12:06;;;;;;;;;3.00;3.00;;;;;24.72;41.32;102556.56;5100679;27;45805;-83
2022/07/09 00:14:32;;;;;;;;;2.67;2.67;;;;;24.34;41.15;102496.72;5100855;27;45401;-83
2022/07/09 00:16:57;;;;;;;;;3.00;3.00;;;;;24.60;41.31;102544.72;5091985;27;45498;-83
2022/07/09 00:19:23;;;;;;;;;2.00;2.00;;;;;24.67;41.49;102547.88;5080186;27;47404;-83
2022/07/09 00:21:48;;;;;;;;;3.00;3.00;;;;;23.65;41.42;102382.78;5080236;27;45434;-82
2022/07/09 00:24:13;;;;;;;;;5.00;3.67;;;;;24.01;41.22;102447.31;5080235;27;45211;-81
2022/07/09 00:26:39;;;;;;;;;4.00;3.00;;;;;24.32;41.41;102494.09;5080386;27;45331;-83
2022/07/09 00:29:04;;;;;;;;;3.67;3.67;;;;;24.48;41.31;102521.09;5082585;27;46312;-82
2022/07/09 00:31:29;;;;;;;;;5.00;3.33;;;;;24.31;41.69;102494.22;5095291;27;45410;-83
2022/07/09 00:33:55;;;;;;;;;2.00;2.00;;;;;24.35;41.34;102501.16;5099868;27;45364;-83
2022/07/09 00:36:20;;;;;;;;;3.00;3.00;;;;;24.56;41.16;102543.22;5100994;27;45318;-83
2022/07/09 00:38:45;;;;;;;;;3.33;3.33;;;;;24.35;41.53;102515.69;5086639;27;47230;-82
2022/07/09 00:41:11;;;;;;;;;3.00;3.00;;;;;24.43;41.86;102534.19;5086895;27;57152;-83
2022/07/09 00:43:36;;;;;;;;;3.33;3.33;;;;;23.93;42.06;102460.63;5100686;27;45399;-83
2022/07/09 00:46:01;;;;;;;;;3.00;3.00;;;;;24.41;41.58;102545.19;5088315;27;45316;-83
2022/07/09 00:48:27;;;;;;;;;3.67;3.67;;;;;24.30;41.57;102534.19;5084273;27;46439;-83
2022/07/09 00:50:53;;;;;;;;;3.67;3.00;;;;;24.37;42.16;102545.53;5089179;27;45344;-83
2022/07/09 00:53:23;;;;;;;;;5.33;3.33;;;;;24.13;42.07;102512.78;5079790;27;45347;-83
2022/07/09 00:55:49;;;;;;;;;3.67;3.00;;;;;24.22;42.62;102523.00;5082946;27;45425;-83
2022/07/09 00:58:17;;;;;;;;;5.00;3.00;;;;;24.32;42.67;102540.41;5079274;27;46085;-83
2022/07/09 01:00:43;;;;;;;;;5.00;4.00;;;;;24.30;42.79;102539.66;5083138;27;45665;-83
2022/07/09 01:03:09;;;;;;;;;3.33;3.33;;;;;24.14;42.77;102523.59;5085969;27;45580;-83
2022/07/09 01:05:37;;;;;;;;;3.00;3.00;;;;;24.23;42.92;102539.25;5100361;27;45545;-83
2022/07/09 01:08:04;;;;;;;;;2.33;2.33;;;;;24.18;42.55;102533.25;5094117;27;47363;-83
2022/07/09 01:10:30;;;;;;;;;5.67;4.33;;;;;24.09;42.85;102523.06;5099594;27;45463;-83
2022/07/09 01:12:55;;;;;;;;;3.00;2.67;;;;;24.06;43.08;102516.94;5098925;27;45411;-83
2022/07/09 01:15:21;;;;;;;;;4.00;4.00;;;;;23.92;43.08;102505.19;5092118;27;45435;-82
2022/07/09 01:17:46;;;;;;;;;3.00;3.00;;;;;23.84;42.85;102479.50;5099777;27;46143;-83
2022/07/09 01:20:11;;;;;;;;;3.33;3.00;;;;;24.08;42.65;102520.44;5099451;27;45454;-82
2022/07/09 01:22:37;;;;;;;;;2.33;2.33;;;;;23.96;42.90;102508.56;5099882;27;45457;-83
2022/07/09 01:25:09;;;;;;;;;3.00;3.00;;;;;23.99;42.73;102519.22;5087127;27;45468;-83
2022/07/09 01:27:35;;;;;;;;;4.00;3.00;;;;;23.99;43.16;102522.81;5098543;27;47058;-83
2022/07/09 01:30:00;;;;;;;;;2.00;2.00;;;;;23.29;43.22;102403.50;5093600;27;45499;-83
2022/07/09 01:32:26;;;;;;;;;5.00;3.67;;;;;23.75;43.25;102486.47;5100009;27;45855;-83
2022/07/09 01:34:51;;;;;;;;;4.00;4.00;;;;;23.68;43.46;102468.81;5099909;27;45425;-83
2022/07/09 01:37:17;;;;;;;;;3.00;3.00;;;;;23.69;43.32;102482.28;5098487;27;46245;-83
2022/07/09 01:39:49;;;;;;;;;5.00;4.00;;;;;23.90;43.52;102517.19;5078714;27;45349;-83
2022/07/09 01:42:19;;;;;;;;;4.33;4.00;;;;;23.84;43.72;102509.47;5093438;27;45414;-83
2022/07/09 01:44:45;;;;;;;;;2.33;2.33;;;;;23.87;43.49;102515.53;5088318;27;45534;-83
2022/07/09 01:47:11;;;;;;;;;5.00;5.00;;;;;23.76;44.35;102491.81;5097214;27;47256;-83
2022/07/09 01:49:36;;;;;;;;;5.33;4.33;;;;;23.60;43.74;102475.69;5099145;27;45270;-83
2022/07/09 01:52:03;;;;;;;;;2.67;2.67;;;;;23.75;43.82;102491.94;5098067;27;45438;-84
2022/07/09 01:54:29;;;;;;;;;3.00;3.00;;;;;23.63;43.81;102477.31;5093269;27;45481;-83
2022/07/09 01:56:54;;;;;;;;;3.67;3.67;;;;;23.46;44.04;102448.59;5092878;27;46038;-84
2022/07/09 01:59:19;;;;;;;;;4.33;4.00;;;;;23.52;44.41;102449.97;5082073;27;46108;-83
2022/07/09 02:01:45;;;;;;;;;4.00;3.00;;;;;23.45;43.91;102444.09;5099365;27;45475;-83
2022/07/09 02:04:10;;;;;;;;;5.00;4.33;;;;;23.59;44.63;102475.78;5099551;27;45554;-83
2022/07/09 02:06:35;;;;;;;;;5.00;3.33;;;;;23.63;44.49;102485.47;5098809;27;46372;-83
2022/07/09 02:09:01;;;;;;;;;4.00;4.00;;;;;23.36;44.49;102445.63;5098521;27;50760;-84
2022/07/09 02:11:26;;;;;;;;;3.67;3.00;;;;;23.57;44.48;102488.63;5099229;27;45443;-83
2022/07/09 02:13:51;;;;;;;;;4.67;4.67;;;;;23.58;44.61;102493.13;5099457;27;45441;-82
2022/07/09 02:16:16;;;;;;;;;4.67;4.67;;;;;23.46;44.71;102473.06;5095475;27;47076;-83
2022/07/09 02:18:42;;;;;;;;;5.00;4.00;;;;;23.52;44.79;102494.41;5081881;27;45473;-83
2022/07/09 02:21:07;;;;;;;;;5.33;5.33;;;;;23.48;45.06;102489.28;5084826;27;45437;-83
2022/07/09 02:23:33;;;;;;;;;4.00;4.00;;;;;23.44;45.52;102487.78;5094170;27;45695;-83
2022/07/09 02:25:58;;;;;;;;;4.00;4.00;;;;;23.29;45.15;102463.34;5097863;27;46306;-84
2022/07/09 02:28:23;;;;;;;;;5.00;5.00;;;;;23.23;45.63;102457.50;5086270;27;45513;-84
2022/07/09 02:30:49;;;;;;;;;4.00;4.00;;;;;23.17;45.64;102453.34;5095741;27;45552;-83
2022/07/09 02:33:14;;;;;;;;;5.00;5.00;;;;;23.29;45.76;102478.81;5095406;27;45453;-82
2022/07/09 02:35:40;;;;;;;;;4.67;4.33;;;;;22.81;45.45;102399.66;5094746;27;45576;-83
2022/07/09 02:38:05;;;;;;;;;6.00;5.00;;;;;23.06;45.56;102447.78;5098114;27;45448;-84
2022/07/09 02:40:30;;;;;;;;;3.33;3.33;;;;;22.68;45.79;102392.31;5091451;27;45387;-83
2022/07/09 02:42:56;;;;;;;;;6.33;5.33;;;;;23.07;46.35;102464.00;5078460;27;45603;-84
2022/07/09 02:45:21;;;;;;;;;6.00;4.33;;;;;22.92;46.48;102440.53;5078054;27;45961;-83
2022/07/09 02:47:46;;;;;;;;;3.00;3.00;;;;;22.86;46.63;102435.53;5078040;27;47673;-83
2022/07/09 02:50:12;;;;;;;;;3.00;3.00;;;;;23.06;46.31;102481.31;5091706;27;45415;-83
2022/07/09 02:52:37;;;;;;;;;5.00;5.00;;;;;23.04;46.44;102485.97;5093438;27;45402;-83
2022/07/09 02:55:02;;;;;;;;;5.00;5.00;;;;;22.92;46.84;102474.06;5098473;27;46116;-83
2022/07/09 02:57:28;;;;;;;;;4.00;4.00;;;;;22.74;46.78;102445.41;5097321;27;45431;-83
2022/07/09 02:59:53;;;;;;;;;4.00;4.00;;;;;22.91;46.54;102482.31;5091663;27;52280;-83
2022/07/09 03:02:18;;;;;;;;;5.00;5.00;;;;;22.90;46.54;102481.44;5089670;27;45587;-83
2022/07/09 03:04:44;;;;;;;;;5.00;5.00;;;;;22.70;46.59;102460.19;5089844;27;46152;-83
2022/07/09 03:07:09;;;;;;;;;4.00;4.00;;;;;22.79;46.64;102480.44;5085526;27;45319;-82
2022/07/09 03:09:35;;;;;;;;;5.67;5.00;;;;;22.82;47.01;102493.81;5093410;27;45551;-84
2022/07/09 03:12:00;;;;;;;;;3.00;3.00;;;;;22.81;47.00;102490.25;5082670;27;45515;-83
2022/07/09 03:14:25;;;;;;;;;4.00;4.00;;;;;22.70;47.13;102479.22;5084798;27;46259;-83
2022/07/09 03:16:50;;;;;;;;;5.00;5.00;;;;;22.69;46.67;102481.06;5077572;27;45337;-83
2022/07/09 03:19:16;;;;;;;;;5.00;4.33;;;;;22.74;47.04;102497.94;5097237;27;45419;-83
2022/07/09 03:21:41;;;;;;;;;5.00;5.00;;;;;22.57;47.30;102462.88;5097956;27;45436;-83
2022/07/09 03:24:08;;;;;;;;;4.00;4.00;;;;;22.70;47.24;102488.22;5084521;27;46050;-83
2022/07/09 03:26:33;;;;;;;;;5.67;5.67;;;;;22.37;46.67;102434.31;5077477;27;45360;-83
2022/07/09 03:28:59;;;;;;;;;5.33;4.00;;;;;22.58;47.50;102472.75;5083593;27;45457;-83
2022/07/09 03:31:24;;;;;;;;;4.00;4.00;;;;;22.67;47.45;102488.44;5089541;27;45400;-83
2022/07/09 03:33:53;;;;;;;;;5.00;5.00;;;;;22.47;47.72;102459.00;5097717;27;45437;-83
2022/07/09 03:36:18;;;;;;;;;4.67;4.67;;;;;22.65;47.03;102492.25;5097638;27;45418;-82
2022/07/09 03:38:43;;;;;;;;;6.33;5.33;;;;;22.43;47.13;102463.78;5097447;27;45396;-82
2022/07/09 03:41:09;;;;;;;;;5.33;5.33;;;;;22.32;47.03;102440.03;5097300;27;45500;-82
2022/07/09 03:43:34;;;;;;;;;4.33;4.33;;;;;22.30;47.70;102441.13;5098457;27;47498;-84
2022/07/09 03:45:59;;;;;;;;;4.67;4.00;;;;;22.49;47.28;102484.25;5101485;27;45558;-83
2022/07/09 03:48:25;;;;;;;;;6.33;6.33;;;;;22.26;47.29;102451.31;5101724;27;45333;-83
2022/07/09 03:50:50;;;;;;;;;5.00;4.00;;;;;22.11;47.76;102425.13;5101347;27;45521;-84
2022/07/09 03:53:15;;;;;;;;;6.67;4.67;;;;;22.52;47.60;102500.31;5101265;27;46490;-83
2022/07/09 03:55:41;;;;;;;;;4.00;4.00;;;;;22.17;47.67;102446.44;5101508;27;45434;-83
2022/07/09 03:58:06;;;;;;;;;6.00;6.00;;;;;22.49;47.56;102505.97;5085924;27;45460;-83
2022/07/09 04:00:32;;;;;;;;;5.00;4.33;;;;;22.05;47.50;102450.81;5081004;27;45481;-83
2022/07/09 04:02:57;;;;;;;;;6.00;6.00;;;;;22.36;47.39;102505.03;5080658;27;46186;-83
2022/07/09 04:05:22;;;;;;;;;8.00;5.00;;;;;22.29;47.64;102497.31;5095617;27;45678;-82
2022/07/09 04:07:48;;;;;;;;;5.00;5.00;;;;;22.09;47.74;102456.94;5099114;27;45685;-83
2022/07/09 04:10:13;;;;;;;;;6.67;5.00;;;;;22.09;48.14;102470.53;5101384;27;45468;-82
2022/07/09 04:12:38;;;;;;;;;7.00;6.00;;;;;22.04;47.68;102467.25;5100867;27;45352;-83
2022/07/09 04:15:04;;;;;;;;;4.33;4.33;;;;;22.36;48.09;102524.94;5087974;27;45424;-83
2022/07/09 04:17:30;;;;;;;;;5.00;5.00;;;;;21.89;48.31;102445.53;5091155;27;45459;-83
2022/07/09 04:19:55;;;;;;;;;6.00;4.67;;;;;22.33;48.26;102527.84;5092664;27;45368;-83
2022/07/09 04:22:20;;;;;;;;;4.67;4.67;;;;;22.22;47.73;102503.22;5084232;27;51336;-83
2022/07/09 04:24:46;;;;;;;;;5.00;5.00;;;;;22.05;48.23;102479.84;5094909;27;45490;-83
2022/07/09 04:27:11;;;;;;;;;6.33;6.33;;;;;21.96;48.01;102458.72;5091460;27;45303;-83
2022/07/09 04:29:36;;;;;;;;;5.00;5.00;;;;;22.27;48.57;102520.09;5080707;27;45375;-83
2022/07/09 04:32:02;;;;;;;;;5.00;5.00;;;;;22.26;48.46;102524.66;5091853;27;56034;-83
2022/07/09 04:34:27;;;;;;;;;7.33;6.00;;;;;22.17;48.45;102513.47;5100246;27;45466;-83
2022/07/09 04:36:53;;;;;;;;;6.00;6.00;;;;;22.22;48.34;102522.22;5100614;27;45368;-83
2022/07/09 04:39:18;;;;;;;;;5.67;5.67;;;;;21.97;48.31;102468.63;5100701;27;45591;-83
2022/07/09 04:41:44;;;;;;;;;5.00;5.00;;;;;22.04;48.29;102483.53;5100245;27;47822;-83
2022/07/09 04:44:11;;;;;;;;;4.00;4.00;;;;;22.18;48.46;102513.38;5099605;27;45322;-83
2022/07/09 04:46:37;;;;;;;;;6.33;6.33;;;;;22.11;48.79;102502.03;5100465;27;45405;-83
2022/07/09 04:49:02;;;;;;;;;6.33;4.67;;;;;22.19;48.73;102516.97;5087405;27;45513;-82
2022/07/09 04:51:27;;;;;;;;;5.00;5.00;;;;;22.05;48.32;102493.41;5079792;27;46778;-84
2022/07/09 04:53:53;;;;;;;;;5.00;5.00;;;;;22.17;48.91;102522.50;5080249;27;45387;-83
2022/07/09 04:56:18;;;;;;;;;6.00;4.67;;;;;21.87;48.73;102477.34;5079130;28;45322;-83
2022/07/09 04:58:51;;;;;;;;;5.00;5.00;;;;;21.96;48.56;102494.00;5080016;28;45387;-83
2022/07/09 05:01:17;;;;;;;;;4.00;4.00;;;;;22.10;48.77;102530.19;5079409;28;46011;-83
2022/07/09 05:03:44;;;;;;;;;5.67;4.00;;;;;22.07;49.18;102530.38;5079156;28;45426;-83
2022/07/09 05:06:09;;;;;;;;;4.00;4.00;;;;;21.81;48.72;102483.16;5093141;27;45529;-83
2022/07/09 05:08:35;;;;;;;;;4.67;4.67;;;;;22.01;49.35;102525.34;5100217;27;45414;-83
2022/07/09 05:11:00;;;;;;;;;7.00;6.00;;;;;21.80;49.10;102484.13;5099926;27;46178;-83
2022/07/09 05:13:26;;;;;;;;;8.33;6.33;;;;;21.97;48.93;102509.34;5099967;27;45328;-83
2022/07/09 05:15:51;;;;;;;;;7.00;6.00;;;;;22.04;49.25;102527.00;5099876;27;45480;-83
2022/07/09 05:18:17;;;;;;;;;8.00;6.67;;;;;22.04;49.30;102521.56;5099921;27;45478;-82
2022/07/09 05:20:42;;;;;;;;;8.33;7.00;;;;;21.89;49.29;102498.94;5099620;27;46742;-83
2022/07/09 05:23:07;;;;;;;;;6.00;6.00;;;;;22.06;49.08;102525.91;5086628;27;45627;-83
2022/07/09 05:25:33;;;;;;;;;5.33;4.00;;;;;21.78;49.03;102474.34;5079362;27;45742;-83
2022/07/09 05:27:58;;;;;;;;;7.33;7.33;;;;;22.03;48.72;102517.97;5079464;27;45546;-79
2022/07/09 05:30:23;;;;;;;;;6.67;6.67;;;;;21.80;49.25;102478.72;5079128;27;47064;-81
2022/07/09 05:32:49;;;;;;;;;7.00;7.00;;;;;21.91;48.94;102497.00;5096641;27;45436;-82
2022/07/09 05:35:14;;;;;;;;;5.00;5.00;;;;;22.00;49.14;102514.56;5094349;27;45515;-82
2022/07/09 05:37:43;;;;;;;;;6.67;6.67;;;;;21.87;49.12;102480.06;5093884;27;45482;-81
2022/07/09 05:40:10;;;;;;;;;7.00;6.67;;;;;21.96;48.80;102496.72;5108206;27;48433;-82
2022/07/09 05:42:35;;;;;;;;;6.33;6.33;;;;;22.14;49.33;102520.84;5114286;27;45431;-78
2022/07/09 05:45:01;;;;;;;;;4.67;4.67;;;;;22.17;48.99;102519.78;5097847;27;45427;-78
2022/07/09 05:47:26;;;;;;;;;6.00;5.00;;;;;22.11;49.07;102507.47;5097647;27;45523;-78
2022/07/09 05:49:51;;;;;;;;;45.33;36.33;;;;;22.22;49.21;102512.25;5100791;27;46951;-78
2022/07/09 05:52:17;;;;;;;;;7.33;6.67;;;;;22.25;49.39;102517.47;5100245;27;45887;-77
2022/07/09 05:54:42;;;;;;;;;7.00;7.00;;;;;22.28;48.40;102520.00;5095042;27;50629;-78
2022/07/09 05:57:07;;;;;;;;;9.00;8.00;;;;;22.34;48.74;102526.88;5090603;27;45304;-79
2022/07/09 05:59:33;;;;;;;;;8.00;7.00;;;;;22.31;48.58;102513.47;5088251;27;46256;-80
2022/07/09 06:01:58;;;;;;;;;7.67;5.67;;;;;22.27;48.92;102506.53;5098453;27;45644;-80
2022/07/09 06:04:23;;;;;;;;;7.00;6.00;;;;;22.17;48.44;102479.03;5098875;27;45866;-80
2022/07/09 06:06:49;;;;;;;;;7.00;5.33;;;;;22.46;48.90;102523.34;5097900;27;45550;-78
2022/07/09 06:09:14;;;;;;;;;6.33;6.33;;;;;22.50;48.67;102519.47;5096578;27;47207;-78
2022/07/09 06:11:40;;;;;;;;;6.00;6.00;;;;;22.53;48.45;102513.81;5097643;27;45443;-77
2022/07/09 06:14:05;;;;;;;;;7.00;6.00;;;;;22.57;48.25;102513.63;5098168;27;45771;-77
2022/07/09 06:16:31;;;;;;;;;6.33;6.33;;;;;22.61;48.19;102509.72;5098829;27;45549;-77
2022/07/09 06:18:56;;;;;;;;;6.67;6.67;;;;;22.69;48.60;102521.84;5098447;27;46167;-78
2022/07/09 06:21:21;;;;;;;;;7.67;6.00;;;;;22.62;48.49;102497.91;5098140;27;45700;-77
2022/07/09 06:23:47;;;;;;;;;6.00;4.33;;;;;22.68;48.18;102506.47;5098739;27;45477;-77
2022/07/09 06:26:12;;;;;;;;;7.67;7.33;;;;;22.80;48.18;102522.94;5098586;27;45471;-77
2022/07/09 06:28:38;;;;;;;;;8.00;6.00;;;;;22.83;47.79;102525.47;5097613;27;46085;-78
2022/07/09 06:31:03;;;;;;;;;7.00;7.00;;;;;22.74;47.87;102500.66;5098129;27;51439;-78
2022/07/09 06:33:28;;;;;;;;;7.00;7.00;;;;;22.80;47.52;102498.47;5092130;27;45515;-78
2022/07/09 06:35:54;;;;;;;;;6.67;5.67;;;;;22.96;47.57;102512.78;5098596;27;45572;-78
2022/07/09 06:38:19;;;;;;;;;8.33;5.00;;;;;23.02;48.35;102515.13;5085873;27;46134;-77
2022/07/09 06:40:45;;;;;;;;;5.33;5.33;;;;;22.84;48.19;102479.13;5096898;27;45509;-77
2022/07/09 06:43:11;;;;;;;;;8.00;8.00;;;;;23.06;47.24;102503.06;5097705;27;45761;-77
2022/07/09 06:45:36;;;;;;;;;5.00;5.00;;;;;23.15;47.71;102517.88;5098244;27;45509;-77
2022/07/09 06:48:02;;;;;;;;;7.00;6.00;;;;;23.10;47.47;102498.28;5097805;27;45477;-77
2022/07/09 06:50:28;;;;;;;;;28.33;22.00;;;;;23.23;47.43;102515.50;5097969;27;45356;-78
2022/07/09 06:52:53;;;;;;;;;33.67;29.33;;;;;23.27;47.41;102518.88;5097895;27;45458;-77
2022/07/09 06:55:18;;;;;;;;;6.67;5.67;;;;;23.25;47.08;102499.94;5098494;27;45489;-77
2022/07/09 06:57:43;;;;;;;;;8.00;8.00;;;;;23.32;47.56;102498.53;5097099;27;57787;-78
2022/07/09 07:00:09;;;;;;;;;7.33;6.33;;;;;23.30;47.51;102508.66;5097865;27;45388;-77
2022/07/09 07:02:35;;;;;;;;;6.00;6.00;;;;;23.38;47.26;102499.94;5096470;27;45404;-78
2022/07/09 07:05:00;;;;;;;;;7.00;7.00;;;;;23.48;47.86;102516.50;5098406;27;45333;-78
2022/07/09 07:07:25;;;;;;;;;9.67;6.00;;;;;23.58;47.92;102515.75;5097396;27;45615;-78
2022/07/09 07:09:51;;;;;;;;;5.67;5.67;;;;;23.66;47.39;102512.47;5097746;27;45393;-78
2022/07/09 07:12:16;;;;;;;;;6.00;4.67;;;;;23.47;47.62;102471.22;5097371;27;45453;-78
2022/07/09 07:14:42;;;;;;;;;6.33;6.33;;;;;23.73;47.65;102502.03;5097962;27;45395;-78
2022/07/09 07:17:08;;;;;;;;;9.67;7.67;;;;;23.75;47.45;102489.22;5097100;27;45422;-78
2022/07/09 07:19:33;;;;;;;;;7.00;7.00;;;;;23.72;47.31;102475.78;5096806;27;45437;-78
2022/07/09 07:21:59;;;;;;;;;6.00;6.00;;;;;24.00;47.15;102508.25;5097493;27;45426;-77
2022/07/09 07:24:25;;;;;;;;;9.00;8.00;;;;;23.94;46.55;102495.06;5097796;27;45501;-78
2022/07/09 07:26:50;;;;;;;;;9.00;5.67;;;;;24.10;46.46;102499.41;5096746;27;46264;-78
2022/07/09 07:29:15;;;;;;;;;6.33;5.33;;;;;24.18;46.67;102505.13;5097098;27;45254;-78
2022/07/09 07:31:41;;;;;;;;;7.00;7.00;;;;;24.17;46.04;102500.69;5097225;27;48263;-77
2022/07/09 07:34:06;;;;;;;;;8.33;8.00;;;;;24.22;45.76;102498.47;5083884;27;45419;-77
2022/07/09 07:36:32;;;;;;;;;8.00;7.00;;;;;24.28;46.23;102500.78;5094290;27;46351;-78
2022/07/09 07:38:57;;;;;;;;;6.33;6.00;;;;;24.42;45.65;102507.94;5097055;27;45246;-78
2022/07/09 07:41:24;;;;;;;;;7.33;5.33;;;;;24.49;46.04;102511.97;5097070;27;45509;-78
2022/07/09 07:43:49;;;;;;;;;5.00;4.67;;;;;24.54;44.95;102506.16;5097674;27;45427;-78
2022/07/09 07:46:14;;;;;;;;;5.33;5.33;;;;;24.58;45.57;102505.81;5096772;27;56149;-78
2022/07/09 07:48:42;;;;;;;;;7.00;6.00;;;;;24.53;45.39;102485.31;5096920;27;45413;-78
2022/07/09 07:51:09;;;;;;;;;3.33;3.33;;;;;24.72;45.61;102504.75;5097301;27;45415;-78
2022/07/09 07:53:35;;;;;;;;;6.33;5.00;;;;;24.73;44.91;102503.78;5097406;27;45394;-78
2022/07/09 07:56:00;;;;;;;;;5.33;5.33;;;;;24.74;45.99;102491.88;5096469;27;46822;-78
2022/07/09 07:58:26;;;;;;;;;5.00;5.00;;;;;24.85;44.76;102500.09;5096939;27;45603;-78
2022/07/09 08:00:51;;;;;;;;;5.67;5.00;;;;;24.90;45.13;102496.16;5096909;27;45391;-78
2022/07/09 08:03:17;;;;;;;;;5.00;3.00;;;;;24.84;45.06;102487.47;5096869;27;45508;-78
2022/07/09 08:05:42;;;;;;;;;5.00;5.00;;;;;25.05;43.98;102500.44;5096789;27;46074;-78
2022/07/09 08:08:07;;;;;;;;;9.00;4.00;;;;;25.10;44.36;102503.69;5096672;27;45339;-78
2022/07/09 08:10:33;;;;;;;;;6.00;5.33;;;;;25.06;44.19;102496.72;5096016;27;45482;-78
2022/07/09 08:12:58;;;;;;;;;5.00;5.00;;;;;25.10;44.41;102487.31;5097380;27;45442;-78
2022/07/09 08:15:23;;;;;;;;;5.67;4.67;;;;;25.02;43.42;102462.47;5096726;27;46953;-81
2022/07/09 08:17:49;;;;;;;;;13.33;11.00;;;;;25.21;44.06;102478.31;5096789;27;45289;-78
2022/07/09 08:20:14;;;;;;;;;4.67;4.67;;;;;25.37;43.36;102494.34;5096573;27;50037;-77
2022/07/09 08:22:40;;;;;;;;;3.33;3.33;;;;;25.22;42.77;102459.09;5095915;27;45253;-78
2022/07/09 08:25:06;;;;;;;;;4.00;4.00;;;;;25.46;43.67;102486.28;5096373;27;47081;-78
2022/07/09 08:27:31;;;;;;;;;4.00;3.33;;;;;25.51;43.14;102479.59;5096361;27;45331;-78
2022/07/09 08:29:56;;;;;;;;;5.33;4.00;;;;;25.55;43.32;102467.47;5096623;27;45643;-78
2022/07/09 08:32:21;;;;;;;;;4.00;4.00;;;;;25.70;44.32;102488.91;5083834;27;45561;-77
2022/07/09 08:34:47;;;;;;;;;6.00;6.00;;;;;25.76;43.88;102486.72;5099369;27;46422;-77
2022/07/09 08:37:12;;;;;;;;;5.00;3.67;;;;;25.76;43.54;102467.59;5100088;27;45413;-77
2022/07/09 08:39:37;;;;;;;;;5.00;5.00;;;;;26.06;42.50;102486.13;5089636;27;45421;-78
2022/07/09 08:42:08;;;;;;;;;5.67;4.33;;;;;26.31;42.90;102476.72;5101562;27;45479;-77
2022/07/09 08:44:35;;;;;;;;;5.67;5.67;;;;;26.67;39.96;102485.63;5086981;27;47322;-78
2022/07/09 08:47:01;;;;;;;;;3.33;3.33;;;;;26.74;41.12;102479.50;5099809;27;45485;-77
2022/07/09 08:49:27;;;;;;;;;5.33;5.00;;;;;26.95;42.38;102471.31;5098600;27;45516;-78
2022/07/09 08:51:56;;;;;;;;;5.00;5.00;;;;;29.13;37.98;102469.09;5100274;27;45429;-78
2022/07/09 08:54:22;;;;;;;;;7.00;7.00;;;;;29.80;37.96;102462.50;5099328;27;47177;-78
2022/07/09 08:56:47;;;;;;;;;7.00;6.00;;;;;28.70;39.12;102446.53;5099723;27;45518;-78
2022/07/09 08:59:13;;;;;;;;;5.00;5.00;;;;;28.39;37.64;102460.34;5091799;27;45519;-78
2022/07/09 09:01:38;;;;;;;;;6.00;4.00;;;;;28.27;39.07;102436.81;5089707;27;45466;-78
2022/07/09 09:04:05;;;;;;;;;3.33;3.33;;;;;28.61;40.51;102458.34;5098910;27;62263;-78
2022/07/09 09:06:36;;;;;;;;;2.67;2.67;;;;;29.24;38.38;102455.16;5099368;27;45403;-78
2022/07/09 09:09:02;;;;;;;;;6.67;6.00;;;;;30.14;38.53;102428.91;5099200;27;45414;-78
2022/07/09 09:11:28;;;;;;;;;3.33;3.00;;;;;30.98;33.38;102446.13;5099975;27;45632;-79
2022/07/09 09:13:54;;;;;;;;;3.00;3.00;;;;;31.26;33.19;102444.06;5099430;27;46077;-79
2022/07/09 09:16:21;;;;;;;;;5.33;5.33;;;;;31.37;34.74;102441.00;5099043;27;45394;-78
2022/07/09 09:18:49;;;;;;;;;5.67;5.33;;;;;31.50;33.02;102433.22;5099140;27;45425;-78
2022/07/09 09:21:16;;;;;;;;;4.67;4.67;;;;;31.78;34.79;102426.63;5099634;27;45407;-78
2022/07/09 09:23:47;;;;;;;;;7.00;5.00;;;;;32.50;33.25;102435.28;5098960;27;47184;-78
2022/07/09 09:26:20;;;;;;;;;6.67;6.67;;;;;33.69;32.42;102428.28;5099135;27;45418;-78
2022/07/09 09:28:47;;;;;;;;;4.67;4.00;;;;;35.30;29.98;102429.22;5099112;27;45467;-79
2022/07/09 09:31:22;;;;;;;;;4.00;4.00;;;;;36.94;27.58;102418.56;5099618;27;45712;-78
2022/07/09 09:33:48;;;;;;;;;8.33;5.67;;;;;38.73;24.71;102433.53;5092449;27;46517;-78
2022/07/09 09:36:31;;;;;;;;;5.33;4.33;;;;;40.36;23.50;102455.06;5099007;27;45422;-78
2022/07/09 09:39:15;;;;;;;;;5.00;5.00;;;;;41.76;21.65;102465.88;5092378;27;45558;-78
2022/07/09 09:41:44;;;;;;;;;5.00;4.00;;;;;43.33;20.03;102455.50;5097510;27;45538;-78
2022/07/09 09:44:14;;;;;;;;;6.33;5.00;;;;;43.59;19.88;102445.69;5095764;27;46128;-78
2022/07/09 09:46:41;;;;;;;;;4.67;4.67;;;;;44.78;18.56;102463.78;5098767;27;45439;-78
2022/07/09 09:49:08;;;;;;;;;5.00;4.00;;;;;45.31;17.65;102448.31;5090943;27;45491;-79
2022/07/09 09:51:53;;;;;;;;;4.00;4.00;;;;;46.21;17.65;102471.44;5098972;27;45518;-78
2022/07/09 09:54:20;;;;;;;;;6.00;5.00;;;;;46.97;16.67;102473.28;5094368;27;46467;-78
2022/07/09 09:56:48;;;;;;;;;4.00;4.00;;;;;47.52;15.87;102468.31;5098442;27;45423;-79
2022/07/09 09:59:15;;;;;;;;;3.33;3.33;;;;;47.65;15.07;102479.13;5098716;27;45399;-79
2022/07/09 10:01:41;;;;;;;;;4.67;4.00;;;;;47.49;15.91;102444.28;5098914;27;45730;-78
2022/07/09 10:04:08;;;;;;;;;4.67;4.67;;;;;43.69;19.03;102448.72;5084618;27;45799;-78
2022/07/09 10:06:34;;;;;;;;;6.67;6.67;;;;;45.39;17.10;102455.47;5095570;27;45357;-78
2022/07/09 10:09:02;;;;;;;;;6.33;6.00;;;;;46.68;16.80;102470.78;5098795;27;45441;-78
2022/07/09 10:11:45;;;;;;;;;5.67;3.00;;;;;47.29;16.04;102476.06;5098606;27;45382;-78
2022/07/09 10:14:22;;;;;;;;;6.00;6.00;;;;;47.73;15.71;102475.75;5092365;27;45719;-78
2022/07/09 10:16:48;;;;;;;;;5.00;5.00;;;;;45.77;17.34;102446.13;5097476;27;45549;-78
2022/07/09 10:19:24;;;;;;;;;5.00;3.33;;;;;46.32;16.46;102467.63;5097761;27;45430;-78
2022/07/09 10:21:52;;;;;;;;;4.00;4.00;;;;;46.42;16.83;102472.53;5098405;27;45326;-78
2022/07/09 10:24:33;;;;;;;;;5.00;4.00;;;;;46.62;16.86;102476.66;5092792;27;46302;-79
2022/07/09 10:27:08;;;;;;;;;4.00;4.00;;;;;46.34;16.98;102478.63;5083959;27;45565;-78
2022/07/09 10:29:35;;;;;;;;;4.67;4.00;;;;;43.10;19.62;102419.84;5090239;27;45513;-78
2022/07/09 10:32:01;;;;;;;;;3.00;3.00;;;;;43.82;18.39;102453.22;5090505;27;45790;-78
2022/07/09 10:34:57;;;;;;;;;2.33;2.33;;;;;44.18;18.79;102449.19;5097875;27;46381;-79
2022/07/09 10:37:38;;;;;;;;;4.67;3.00;;;;;44.10;19.09;102423.47;5091456;27;45539;-78
2022/07/09 10:40:15;;;;;;;;;3.67;3.67;;;;;44.06;18.57;102397.78;5097013;27;45687;-79
2022/07/09 10:42:43;;;;;;;;;3.67;3.00;;;;;44.18;18.72;102420.22;5093615;27;45310;-79
2022/07/09 10:45:34;;;;;;;;;4.33;4.33;;;;;43.78;19.26;102415.47;5090391;27;46234;-79
2022/07/09 10:48:01;;;;;;;;;3.00;3.00;;;;;43.74;18.75;102412.34;5088295;27;45697;-79
2022/07/09 10:50:30;;;;;;;;;3.67;3.67;;;;;43.58;19.24;102385.00;5094732;27;45539;-79
2022/07/09 10:52:56;;;;;;;;;4.00;4.00;;;;;43.75;19.44;102404.75;5089730;27;45634;-78
2022/07/09 10:55:24;;;;;;;;;2.00;2.00;;;;;43.56;19.21;102409.69;5084894;27;47512;-79
2022/07/09 10:57:51;;;;;;;;;4.00;4.00;;;;;42.52;19.21;102408.34;5095738;27;45418;-78
2022/07/09 11:00:21;;;;;;;;;6.33;5.00;;;;;41.89;20.57;102397.59;5095678;27;45394;-79
2022/07/09 11:02:57;;;;;;;;;5.67;4.00;;;;;41.51;21.20;102402.38;5094739;27;45531;-78
2022/07/09 11:05:24;;;;;;;;;3.00;3.00;;;;;41.59;21.09;102397.59;5096551;27;46091;-79
2022/07/09 11:07:57;;;;;;;;;3.67;3.67;;;;;41.68;21.14;102397.03;5097153;27;45395;-79
2022/07/09 11:10:23;;;;;;;;;8.33;5.00;;;;;41.61;20.76;102373.88;5104607;27;45510;-77
2022/07/09 11:12:49;;;;;;;;;2.67;2.67;;;;;41.60;20.88;102391.75;5100150;27;45649;-79
2022/07/09 11:15:21;;;;;;;;;5.00;4.00;;;;;41.40;21.02;102357.50;5097261;27;45449;-80
2022/07/09 11:17:58;;;;;;;;;5.67;5.67;;;;;41.33;20.67;102378.06;5105742;27;45310;-80
2022/07/09 11:20:23;;;;;;;;;7.00;6.00;;;;;41.00;21.45;102381.22;5087145;27;45555;-80
2022/07/09 11:22:49;;;;;;;;;5.00;3.67;;;;;40.36;21.79;102380.44;5087747;27;45498;-80